sensor_id;sensor_type;location;lat;lon;timestamp;pressure;altitude;pressure_sealevel;temperature;humidity
14232;BME280;7200;52.194;9.900;2023-02-15T00:01:27;101719.47;;;3.79;100.00
14232;BME280;7200;52.194;9.900;2023-02-15T00:03:52;101714.19;;;3.73;100.00
14232;BME280;7200;52.194;9.900;2023-02-15T00:06:18;101717.63;;;3.70;100.00
14232;BME280;7200;52.194;9.900;2023-02-15T00:08:44;101709.56;;;3.54;100.00
14232;BME280;7200;52.194;9.900;2023-02-15T00:11:11;101668.28;;;3.22;100.00
14232;BME280;7200;52.194;9.900;2023-02-15T00:13:37;101677.75;;;3.15;100.00
14232;BME280;7200;52.194;9.900;2023-02-15T00:16:08;101698.66;;;3.18;100.00
14232;BME280;7200;52.194;9.900;2023-02-15T00:18:34;101671.44;;;2.99;100.00
14232;BME280;7200;52.194;9.900;2023-02-15T00:21:07;101662.47;;;2.80;100.00
14232;BME280;7200;52.194;9.900;2023-02-15T00:23:33;101649.16;;;2.60;100.00
14232;BME280;7200;52.194;9.900;2023-02-15T00:26:10;101681.44;;;2.70;100.00
14232;BME280;7200;52.194;9.900;2023-02-15T00:28:36;101682.34;;;2.72;100.00
14232;BME280;7200;52.194;9.900;2023-02-15T00:31:05;101688.41;;;2.72;100.00
14232;BME280;7200;52.194;9.900;2023-02-15T00:33:31;101684.84;;;2.67;100.00
14232;BME280;7200;52.194;9.900;2023-02-15T00:36:00;101632.19;;;2.33;100.00
14232;BME280;7200;52.194;9.900;2023-02-15T00:38:30;101666.13;;;2.38;100.00
14232;BME280;7200;52.194;9.900;2023-02-15T00:40:58;101663.44;;;2.32;100.00
14232;BME280;7200;52.194;9.900;2023-02-15T00:43:23;101649.19;;;2.11;100.00
14232;BME280;7200;52.194;9.900;2023-02-15T00:45:49;101696.66;;;2.45;100.00
14232;BME280;7200;52.194;9.900;2023-02-15T00:48:14;101668.50;;;2.23;100.00
14232;BME280;7200;52.194;9.900;2023-02-15T00:50:40;101693.91;;;2.39;100.00
14232;BME280;7200;52.194;9.900;2023-02-15T00:53:05;101700.03;;;2.40;100.00
14232;BME280;7200;52.194;9.900;2023-02-15T00:55:31;101714.16;;;2.52;100.00
14232;BME280;7200;52.194;9.900;2023-02-15T00:57:56;101672.00;;;2.25;100.00
14232;BME280;7200;52.194;9.900;2023-02-15T01:00:22;101689.47;;;2.32;100.00
14232;BME280;7200;52.194;9.900;2023-02-15T01:02:47;101671.88;;;2.19;100.00
14232;BME280;7200;52.194;9.900;2023-02-15T01:05:13;101691.91;;;2.23;100.00
14232;BME280;7200;52.194;9.900;2023-02-15T01:07:38;101690.25;;;2.28;100.00
14232;BME280;7200;52.194;9.900;2023-02-15T01:10:06;101675.16;;;2.08;100.00
14232;BME280;7200;52.194;9.900;2023-02-15T01:12:32;101717.38;;;2.38;100.00
14232;BME280;7200;52.194;9.900;2023-02-15T01:14:57;101739.63;;;2.70;100.00
14232;BME280;7200;52.194;9.900;2023-02-15T01:17:22;101763.47;;;2.92;100.00
14232;BME280;7200;52.194;9.900;2023-02-15T01:19:47;101762.78;;;3.04;100.00
14232;BME280;7200;52.194;9.900;2023-02-15T01:22:13;101787.44;;;3.24;100.00
14232;BME280;7200;52.194;9.900;2023-02-15T01:24:38;101777.13;;;3.32;100.00
14232;BME280;7200;52.194;9.900;2023-02-15T01:27:04;101765.81;;;3.31;100.00
14232;BME280;7200;52.194;9.900;2023-02-15T01:29:29;101762.28;;;3.29;100.00
14232;BME280;7200;52.194;9.900;2023-02-15T01:31:55;101729.75;;;3.04;100.00
14232;BME280;7200;52.194;9.900;2023-02-15T01:34:20;101754.31;;;3.19;100.00
14232;BME280;7200;52.194;9.900;2023-02-15T01:36:46;101738.50;;;3.08;100.00
14232;BME280;7200;52.194;9.900;2023-02-15T01:39:11;101744.69;;;3.16;100.00
14232;BME280;7200;52.194;9.900;2023-02-15T01:41:36;101746.47;;;3.17;100.00
14232;BME280;7200;52.194;9.900;2023-02-15T01:44:03;101715.75;;;2.99;100.00
14232;BME280;7200;52.194;9.900;2023-02-15T01:46:33;101662.16;;;2.62;100.00
14232;BME280;7200;52.194;9.900;2023-02-15T01:49:03;101666.41;;;2.53;100.00
14232;BME280;7200;52.194;9.900;2023-02-15T01:51:32;101652.19;;;2.34;100.00
14232;BME280;7200;52.194;9.900;2023-02-15T01:54:09;101664.38;;;2.37;100.00
14232;BME280;7200;52.194;9.900;2023-02-15T01:56:38;101609.88;;;1.98;100.00
14232;BME280;7200;52.194;9.900;2023-02-15T01:59:08;101632.25;;;1.88;100.00
14232;BME280;7200;52.194;9.900;2023-02-15T02:01:34;101676.09;;;2.12;100.00
14232;BME280;7200;52.194;9.900;2023-02-15T02:04:18;101679.59;;;2.14;100.00
14232;BME280;7200;52.194;9.900;2023-02-15T02:06:46;101657.63;;;2.00;100.00
14232;BME280;7200;52.194;9.900;2023-02-15T02:09:13;101661.94;;;1.96;100.00
14232;BME280;7200;52.194;9.900;2023-02-15T02:11:39;101668.78;;;1.91;100.00
14232;BME280;7200;52.194;9.900;2023-02-15T02:14:06;101689.97;;;2.12;100.00
14232;BME280;7200;52.194;9.900;2023-02-15T02:17:05;101702.31;;;2.21;100.00
14232;BME280;7200;52.194;9.900;2023-02-15T02:25:20;101645.66;;;1.62;100.00
14232;BME280;7200;52.194;9.900;2023-02-15T02:30:58;101672.03;;;1.79;100.00
14232;BME280;7200;52.194;9.900;2023-02-15T02:33:44;101629.88;;;1.53;100.00
14232;BME280;7200;52.194;9.900;2023-02-15T02:39:12;101612.31;;;1.43;100.00
14232;BME280;7200;52.194;9.900;2023-02-15T02:41:49;101621.09;;;1.48;100.00
14232;BME280;7200;52.194;9.900;2023-02-15T02:44:22;101629.81;;;1.50;100.00
14232;BME280;7200;52.194;9.900;2023-02-15T02:49:37;101615.94;;;1.49;100.00
14232;BME280;7200;52.194;9.900;2023-02-15T02:54:57;101583.38;;;1.26;100.00
14232;BME280;7200;52.194;9.900;2023-02-15T02:57:25;101590.38;;;1.30;100.00
14232;BME280;7200;52.194;9.900;2023-02-15T02:59:53;101586.91;;;1.29;100.00
14232;BME280;7200;52.194;9.900;2023-02-15T03:02:30;101578.84;;;1.15;100.00
14232;BME280;7200;52.194;9.900;2023-02-15T03:05:01;101588.44;;;1.18;100.00
14232;BME280;7200;52.194;9.900;2023-02-15T03:07:30;101557.50;;;0.89;100.00
14232;BME280;7200;52.194;9.900;2023-02-15T03:09:57;101573.19;;;0.94;100.00
14232;BME280;7200;52.194;9.900;2023-02-15T03:12:28;101595.06;;;1.04;100.00
14232;BME280;7200;52.194;9.900;2023-02-15T03:14:59;101609.94;;;1.09;100.00
14232;BME280;7200;52.194;9.900;2023-02-15T03:17:31;101589.75;;;0.99;100.00
14232;BME280;7200;52.194;9.900;2023-02-15T03:20:01;101596.88;;;1.08;100.00
14232;BME280;7200;52.194;9.900;2023-02-15T03:22:34;101609.50;;;1.30;100.00
14232;BME280;7200;52.194;9.900;2023-02-15T03:25:07;101607.56;;;1.22;100.00
14232;BME280;7200;52.194;9.900;2023-02-15T03:27:38;101587.41;;;1.10;100.00
14232;BME280;7200;52.194;9.900;2023-02-15T03:30:05;101551.22;;;0.78;100.00
14232;BME280;7200;52.194;9.900;2023-02-15T03:32:33;101537.66;;;0.52;100.00
14232;BME280;7200;52.194;9.900;2023-02-15T03:34:59;101566.44;;;0.61;100.00
14232;BME280;7200;52.194;9.900;2023-02-15T03:37:34;101593.47;;;0.71;100.00
14232;BME280;7200;52.194;9.900;2023-02-15T03:40:07;101587.28;;;0.64;100.00
14232;BME280;7200;52.194;9.900;2023-02-15T03:43:00;101568.00;;;0.54;100.00
14232;BME280;7200;52.194;9.900;2023-02-15T03:45:31;101578.53;;;0.61;100.00
14232;BME280;7200;52.194;9.900;2023-02-15T03:47:58;101617.09;;;0.82;100.00
14232;BME280;7200;52.194;9.900;2023-02-15T03:50:28;101597.97;;;0.78;100.00
14232;BME280;7200;52.194;9.900;2023-02-15T03:53:16;101592.47;;;0.66;100.00
14232;BME280;7200;52.194;9.900;2023-02-15T03:55:47;101587.81;;;0.49;100.00
14232;BME280;7200;52.194;9.900;2023-02-15T03:58:12;101589.44;;;0.46;100.00
14232;BME280;7200;52.194;9.900;2023-02-15T04:01:05;101608.66;;;0.54;100.00
14232;BME280;7200;52.194;9.900;2023-02-15T04:04:00;101590.28;;;0.45;100.00
14232;BME280;7200;52.194;9.900;2023-02-15T04:06:26;101610.31;;;0.50;100.00
14232;BME280;7200;52.194;9.900;2023-02-15T04:08:51;101619.91;;;0.53;100.00
14232;BME280;7200;52.194;9.900;2023-02-15T04:11:35;101630.31;;;0.54;100.00
14232;BME280;7200;52.194;9.900;2023-02-15T04:14:01;101657.50;;;0.69;100.00
14232;BME280;7200;52.194;9.900;2023-02-15T04:16:46;101688.50;;;0.99;100.00
14232;BME280;7200;52.194;9.900;2023-02-15T04:19:11;101676.72;;;1.13;100.00
14232;BME280;7200;52.194;9.900;2023-02-15T04:21:55;101674.16;;;1.16;100.00
14232;BME280;7200;52.194;9.900;2023-02-15T04:24:39;101667.97;;;1.10;100.00
14232;BME280;7200;52.194;9.900;2023-02-15T04:27:22;101639.09;;;0.97;100.00
14232;BME280;7200;52.194;9.900;2023-02-15T04:29:48;101629.47;;;0.93;100.00
14232;BME280;7200;52.194;9.900;2023-02-15T04:32:15;101634.72;;;0.95;100.00
14232;BME280;7200;52.194;9.900;2023-02-15T04:34:40;101621.78;;;0.96;100.00
14232;BME280;7200;52.194;9.900;2023-02-15T04:37:05;101622.72;;;1.00;100.00
14232;BME280;7200;52.194;9.900;2023-02-15T04:39:31;101612.31;;;1.02;100.00
14232;BME280;7200;52.194;9.900;2023-02-15T04:41:57;101606.22;;;0.98;100.00
14232;BME280;7200;52.194;9.900;2023-02-15T04:44:22;101556.97;;;0.65;100.00
14232;BME280;7200;52.194;9.900;2023-02-15T04:46:47;101532.00;;;0.32;100.00
14232;BME280;7200;52.194;9.900;2023-02-15T04:49:14;101537.78;;;0.20;100.00
14232;BME280;7200;52.194;9.900;2023-02-15T04:51:39;101538.69;;;0.22;100.00
14232;BME280;7200;52.194;9.900;2023-02-15T04:54:04;101563.19;;;0.33;100.00
14232;BME280;7200;52.194;9.900;2023-02-15T04:56:30;101574.56;;;0.38;100.00
14232;BME280;7200;52.194;9.900;2023-02-15T04:58:56;101577.16;;;0.38;100.00
14232;BME280;7200;52.194;9.900;2023-02-15T05:01:21;101586.81;;;0.44;100.00
14232;BME280;7200;52.194;9.900;2023-02-15T05:03:46;101603.47;;;0.54;100.00
14232;BME280;7200;52.194;9.900;2023-02-15T05:06:12;101629.75;;;0.66;100.00
14232;BME280;7200;52.194;9.900;2023-02-15T05:08:37;101572.59;;;0.30;100.00
14232;BME280;7200;52.194;9.900;2023-02-15T05:11:02;101594.47;;;0.38;100.00
14232;BME280;7200;52.194;9.900;2023-02-15T05:13:27;101591.81;;;0.36;100.00
14232;BME280;7200;52.194;9.900;2023-02-15T05:15:53;101552.31;;;0.12;100.00
14232;BME280;7200;52.194;9.900;2023-02-15T05:18:20;101588.28;;;0.33;100.00
14232;BME280;7200;52.194;9.900;2023-02-15T05:20:46;101606.84;;;0.50;100.00
14232;BME280;7200;52.194;9.900;2023-02-15T05:23:12;101636.91;;;0.76;100.00
14232;BME280;7200;52.194;9.900;2023-02-15T05:25:37;101608.00;;;0.63;100.00
14232;BME280;7200;52.194;9.900;2023-02-15T05:28:22;101602.00;;;0.65;100.00
14232;BME280;7200;52.194;9.900;2023-02-15T05:31:15;101596.72;;;0.62;100.00
14232;BME280;7200;52.194;9.900;2023-02-15T05:33:42;101569.53;;;0.46;100.00
14232;BME280;7200;52.194;9.900;2023-02-15T05:36:08;101577.41;;;0.51;100.00
14232;BME280;7200;52.194;9.900;2023-02-15T05:38:33;101585.41;;;0.58;100.00
14232;BME280;7200;52.194;9.900;2023-02-15T05:40:59;101573.91;;;0.49;100.00
14232;BME280;7200;52.194;9.900;2023-02-15T05:43:25;101560.72;;;0.38;100.00
14232;BME280;7200;52.194;9.900;2023-02-15T05:45:52;101575.47;;;0.41;100.00
14232;BME280;7200;52.194;9.900;2023-02-15T05:48:19;101572.84;;;0.39;100.00
14232;BME280;7200;52.194;9.900;2023-02-15T05:50:45;101575.38;;;0.36;100.00
14232;BME280;7200;52.194;9.900;2023-02-15T05:53:10;101599.84;;;0.46;100.00
14232;BME280;7200;52.194;9.900;2023-02-15T05:55:40;101613.69;;;0.46;100.00
14232;BME280;7200;52.194;9.900;2023-02-15T05:58:06;101620.66;;;0.47;100.00
14232;BME280;7200;52.194;9.900;2023-02-15T06:00:32;101622.41;;;0.50;100.00
14232;BME280;7200;52.194;9.900;2023-02-15T06:02:58;101596.09;;;0.34;100.00
14232;BME280;7200;52.194;9.900;2023-02-15T06:05:23;101575.66;;;0.12;100.00
14232;BME280;7200;52.194;9.900;2023-02-15T06:07:48;101590.44;;;0.16;100.00
14232;BME280;7200;52.194;9.900;2023-02-15T06:10:14;101590.44;;;0.16;100.00
14232;BME280;7200;52.194;9.900;2023-02-15T06:12:39;101604.53;;;0.26;100.00
14232;BME280;7200;52.194;9.900;2023-02-15T06:15:05;101583.47;;;0.13;100.00
14232;BME280;7200;52.194;9.900;2023-02-15T06:17:30;101593.91;;;0.16;100.00
14232;BME280;7200;52.194;9.900;2023-02-15T06:19:56;101607.94;;;0.23;100.00
14232;BME280;7200;52.194;9.900;2023-02-15T06:22:21;101605.41;;;0.26;100.00
14232;BME280;7200;52.194;9.900;2023-02-15T06:24:47;101620.56;;;0.44;100.00
14232;BME280;7200;52.194;9.900;2023-02-15T06:27:12;101629.53;;;0.57;100.00
14232;BME280;7200;52.194;9.900;2023-02-15T06:29:37;101627.88;;;0.61;100.00
14232;BME280;7200;52.194;9.900;2023-02-15T06:32:03;101617.50;;;0.62;100.00
14232;BME280;7200;52.194;9.900;2023-02-15T06:34:29;101608.63;;;0.52;100.00
14232;BME280;7200;52.194;9.900;2023-02-15T06:36:54;101579.53;;;0.29;100.00
14232;BME280;7200;52.194;9.900;2023-02-15T06:39:19;101577.84;;;0.31;100.00
14232;BME280;7200;52.194;9.900;2023-02-15T06:41:45;101558.25;;;0.08;100.00
14232;BME280;7200;52.194;9.900;2023-02-15T06:44:10;101589.09;;;0.30;100.00
14232;BME280;7200;52.194;9.900;2023-02-15T06:46:35;101594.28;;;0.32;100.00
14232;BME280;7200;52.194;9.900;2023-02-15T06:49:01;101595.25;;;0.35;100.00
14232;BME280;7200;52.194;9.900;2023-02-15T06:51:26;101600.38;;;0.34;100.00
14232;BME280;7200;52.194;9.900;2023-02-15T06:53:51;101584.63;;;0.25;100.00
14232;BME280;7200;52.194;9.900;2023-02-15T06:56:16;101598.59;;;0.31;100.00
14232;BME280;7200;52.194;9.900;2023-02-15T06:58:42;101599.34;;;0.26;100.00
14232;BME280;7200;52.194;9.900;2023-02-15T07:01:08;101612.28;;;0.24;100.00
14232;BME280;7200;52.194;9.900;2023-02-15T07:03:34;101570.28;;;0.06;100.00
14232;BME280;7200;52.194;9.900;2023-02-15T07:06:02;101599.16;;;0.18;100.00
14232;BME280;7200;52.194;9.900;2023-02-15T07:08:28;101593.97;;;0.18;100.00
14232;BME280;7200;52.194;9.900;2023-02-15T07:10:55;101583.31;;;0.07;100.00
14232;BME280;7200;52.194;9.900;2023-02-15T07:13:40;101557.03;;;-0.07;100.00
14232;BME280;7200;52.194;9.900;2023-02-15T07:16:08;101567.16;;;-0.16;100.00
14232;BME280;7200;52.194;9.900;2023-02-15T07:18:33;101594.44;;;0.03;100.00
14232;BME280;7200;52.194;9.900;2023-02-15T07:20:58;101610.97;;;0.07;100.00
14232;BME280;7200;52.194;9.900;2023-02-15T07:23:23;101619.81;;;0.13;100.00
14232;BME280;7200;52.194;9.900;2023-02-15T07:25:56;101634.72;;;0.22;100.00
14232;BME280;7200;52.194;9.900;2023-02-15T07:28:22;101640.03;;;0.27;100.00
14232;BME280;7200;52.194;9.900;2023-02-15T07:30:47;101636.72;;;0.32;100.00
14232;BME280;7200;52.194;9.900;2023-02-15T07:33:13;101646.38;;;0.39;100.00
14232;BME280;7200;52.194;9.900;2023-02-15T07:35:54;101634.34;;;0.42;100.00
14232;BME280;7200;52.194;9.900;2023-02-15T07:38:21;101642.97;;;0.41;100.00
14232;BME280;7200;52.194;9.900;2023-02-15T07:40:46;101655.31;;;0.49;100.00
14232;BME280;7200;52.194;9.900;2023-02-15T07:43:12;101667.84;;;0.67;100.00
14232;BME280;7200;52.194;9.900;2023-02-15T07:45:39;101668.78;;;0.71;100.00
14232;BME280;7200;52.194;9.900;2023-02-15T07:48:05;101640.59;;;0.50;100.00
14232;BME280;7200;52.194;9.900;2023-02-15T07:50:31;101642.25;;;0.46;100.00
14232;BME280;7200;52.194;9.900;2023-02-15T07:52:57;101651.81;;;0.49;100.00
14232;BME280;7200;52.194;9.900;2023-02-15T07:55:22;101667.66;;;0.60;100.00
14232;BME280;7200;52.194;9.900;2023-02-15T07:57:49;101675.69;;;0.69;100.00
14232;BME280;7200;52.194;9.900;2023-02-15T08:00:19;101681.22;;;0.84;100.00
14232;BME280;7200;52.194;9.900;2023-02-15T08:02:56;101688.50;;;0.99;100.00
14232;BME280;7200;52.194;9.900;2023-02-15T08:05:40;101681.72;;;1.04;100.00
14232;BME280;7200;52.194;9.900;2023-02-15T08:08:08;101711.09;;;1.40;100.00
14232;BME280;7200;52.194;9.900;2023-02-15T08:10:37;101688.56;;;1.40;100.00
14232;BME280;7200;52.194;9.900;2023-02-15T08:13:21;101698.28;;;1.49;100.00
14232;BME280;7200;52.194;9.900;2023-02-15T08:15:50;101680.91;;;1.48;100.00
14232;BME280;7200;52.194;9.900;2023-02-15T08:18:15;101674.09;;;1.53;100.00
14232;BME280;7200;52.194;9.900;2023-02-15T08:20:41;101654.09;;;1.50;100.00
14232;BME280;7200;52.194;9.900;2023-02-15T08:23:06;101656.22;;;1.70;100.00
14232;BME280;7200;52.194;9.900;2023-02-15T08:25:31;101641.75;;;1.84;100.00
14232;BME280;7200;52.194;9.900;2023-02-15T08:27:57;101649.03;;;2.02;100.00
14232;BME280;7200;52.194;9.900;2023-02-15T08:30:22;101649.47;;;2.27;100.00
14232;BME280;7200;52.194;9.900;2023-02-15T08:32:47;101638.31;;;2.34;100.00
14232;BME280;7200;52.194;9.900;2023-02-15T08:35:13;101648.31;;;2.63;100.00
14232;BME280;7200;52.194;9.900;2023-02-15T08:37:38;101640.81;;;2.84;100.00
14232;BME280;7200;52.194;9.900;2023-02-15T08:40:04;101642.03;;;3.09;100.00
14232;BME280;7200;52.194;9.900;2023-02-15T08:42:32;101633.59;;;3.29;100.00
14232;BME280;7200;52.194;9.900;2023-02-15T08:44:58;101598.75;;;3.24;100.00
14232;BME280;7200;52.194;9.900;2023-02-15T08:47:23;101599.84;;;3.41;100.00
14232;BME280;7200;52.194;9.900;2023-02-15T08:49:48;101600.13;;;3.66;100.00
14232;BME280;7200;52.194;9.900;2023-02-15T08:52:14;101602.09;;;3.87;100.00
14232;BME280;7200;52.194;9.900;2023-02-15T08:54:39;101583.84;;;3.92;100.00
14232;BME280;7200;52.194;9.900;2023-02-15T08:57:04;101555.91;;;3.81;100.00
14232;BME280;7200;52.194;9.900;2023-02-15T08:59:31;101584.88;;;4.10;100.00
14232;BME280;7200;52.194;9.900;2023-02-15T09:01:57;101559.75;;;4.25;100.00
14232;BME280;7200;52.194;9.900;2023-02-15T09:04:22;101551.19;;;4.43;100.00
14232;BME280;7200;52.194;9.900;2023-02-15T09:06:49;101516.25;;;4.27;100.00
14232;BME280;7200;52.194;9.900;2023-02-15T09:09:16;101523.28;;;4.39;100.00
14232;BME280;7200;52.194;9.900;2023-02-15T09:11:44;101524.22;;;4.52;100.00
14232;BME280;7200;52.194;9.900;2023-02-15T09:14:15;101510.34;;;4.60;100.00
14232;BME280;7200;52.194;9.900;2023-02-15T09:16:43;101486.81;;;4.57;100.00
14232;BME280;7200;52.194;9.900;2023-02-15T09:19:14;101485.97;;;4.63;100.00
14232;BME280;7200;52.194;9.900;2023-02-15T09:21:40;101478.19;;;4.74;100.00
14232;BME280;7200;52.194;9.900;2023-02-15T09:24:08;101484.34;;;4.86;100.00
14232;BME280;7200;52.194;9.900;2023-02-15T09:26:36;101504.47;;;5.09;100.00
14232;BME280;7200;52.194;9.900;2023-02-15T09:29:02;101484.41;;;5.16;100.00
14232;BME280;7200;52.194;9.900;2023-02-15T09:31:30;101458.28;;;5.19;100.00
14232;BME280;7200;52.194;9.900;2023-02-15T09:33:58;101444.34;;;5.26;100.00
14232;BME280;7200;52.194;9.900;2023-02-15T09:36:32;101419.06;;;5.34;100.00
14232;BME280;7200;52.194;9.900;2023-02-15T09:39:01;101419.06;;;5.59;100.00
14232;BME280;7200;52.194;9.900;2023-02-15T09:47:09;101363.19;;;5.71;100.00
14232;BME280;7200;52.194;9.900;2023-02-15T09:52:31;101358.00;;;5.29;100.00
14232;BME280;7200;52.194;9.900;2023-02-15T10:00:30;101361.41;;;4.82;100.00
14232;BME280;7200;52.194;9.900;2023-02-15T10:03:49;101387.63;;;5.00;100.00
14232;BME280;7200;52.194;9.900;2023-02-15T10:11:32;101408.59;;;5.76;100.00
14232;BME280;7200;52.194;9.900;2023-02-15T10:14:21;101388.53;;;5.84;100.00
14232;BME280;7200;52.194;9.900;2023-02-15T10:25:46;101370.13;;;6.12;100.00
14232;BME280;7200;52.194;9.900;2023-02-15T10:28:19;101371.00;;;6.14;100.00
14232;BME280;7200;52.194;9.900;2023-02-15T10:33:20;101385.81;;;6.33;100.00
14232;BME280;7200;52.194;9.900;2023-02-15T10:36:05;101356.16;;;6.13;100.00
14232;BME280;7200;52.194;9.900;2023-02-15T10:38:41;101332.59;;;6.08;100.00
14232;BME280;7200;52.194;9.900;2023-02-15T10:41:36;101349.16;;;6.24;100.00
14232;BME280;7200;52.194;9.900;2023-02-15T10:44:19;101284.63;;;5.95;100.00
14232;BME280;7200;52.194;9.900;2023-02-15T10:50:03;101322.97;;;6.16;100.00
14232;BME280;7200;52.194;9.900;2023-02-15T10:55:33;101320.28;;;6.30;100.00
14232;BME280;7200;52.194;9.900;2023-02-15T10:58:14;101268.88;;;5.94;100.00
14232;BME280;7200;52.194;9.900;2023-02-15T11:00:50;101339.53;;;6.29;100.00
14232;BME280;7200;52.194;9.900;2023-02-15T11:06:19;101383.72;;;6.98;100.00
14232;BME280;7200;52.194;9.900;2023-02-15T11:08:55;101302.66;;;6.57;100.00
14232;BME280;7200;52.194;9.900;2023-02-15T11:11:27;101307.03;;;6.59;100.00
14232;BME280;7200;52.194;9.900;2023-02-15T11:13:58;101301.75;;;6.62;100.00
14232;BME280;7200;52.194;9.900;2023-02-15T11:16:37;101310.53;;;6.57;100.00
14232;BME280;7200;52.194;9.900;2023-02-15T11:19:09;101280.06;;;6.37;100.00
14232;BME280;7200;52.194;9.900;2023-02-15T11:21:40;101276.63;;;6.21;100.00
14232;BME280;7200;52.194;9.900;2023-02-15T11:24:19;101257.50;;;6.09;100.00
14232;BME280;7200;52.194;9.900;2023-02-15T11:27:01;101273.16;;;6.19;100.00
14232;BME280;7200;52.194;9.900;2023-02-15T11:32:26;101280.00;;;6.48;100.00
14232;BME280;7200;52.194;9.900;2023-02-15T11:35:10;101279.91;;;6.65;100.00
14232;BME280;7200;52.194;9.900;2023-02-15T11:40:22;101314.44;;;7.24;100.00
14232;BME280;7200;52.194;9.900;2023-02-15T11:42:51;101283.72;;;7.32;100.00
14232;BME280;7200;52.194;9.900;2023-02-15T11:45:29;101296.50;;;7.68;100.00
14232;BME280;7200;52.194;9.900;2023-02-15T11:47:56;101245.66;;;7.73;100.00
14232;BME280;7200;52.194;9.900;2023-02-15T11:50:27;101196.69;;;7.71;100.00
14232;BME280;7200;52.194;9.900;2023-02-15T11:52:58;101191.38;;;7.74;100.00
14232;BME280;7200;52.194;9.900;2023-02-15T11:55:24;101200.66;;;8.03;100.00
14232;BME280;7200;52.194;9.900;2023-02-15T12:03:47;101168.44;;;7.88;100.00
14232;BME280;7200;52.194;9.900;2023-02-15T12:06:18;101198.75;;;8.14;100.00
14232;BME280;7200;52.194;9.900;2023-02-15T12:08:53;101207.22;;;8.34;100.00
14232;BME280;7200;52.194;9.900;2023-02-15T12:11:26;101223.63;;;8.53;100.00
14232;BME280;7200;52.194;9.900;2023-02-15T12:13:59;101175.53;;;8.44;100.00
14232;BME280;7200;52.194;9.900;2023-02-15T12:16:25;101214.72;;;8.61;100.00
14232;BME280;7200;52.194;9.900;2023-02-15T12:18:53;101178.22;;;8.39;100.00
14232;BME280;7200;52.194;9.900;2023-02-15T12:21:39;101186.47;;;8.13;100.00
14232;BME280;7200;52.194;9.900;2023-02-15T12:24:19;101225.81;;;8.19;100.00
14232;BME280;7200;52.194;9.900;2023-02-15T12:26:56;101244.72;;;8.47;100.00
14232;BME280;7200;52.194;9.900;2023-02-15T12:29:26;101220.22;;;8.45;100.00
14232;BME280;7200;52.194;9.900;2023-02-15T12:31:52;101182.72;;;8.31;100.00
14232;BME280;7200;52.194;9.900;2023-02-15T12:34:37;101173.34;;;8.11;100.00
14232;BME280;7200;52.194;9.900;2023-02-15T12:37:10;101214.28;;;8.31;100.00
14232;BME280;7200;52.194;9.900;2023-02-15T12:39:51;101228.06;;;8.50;100.00
14232;BME280;7200;52.194;9.900;2023-02-15T12:42:16;101216.63;;;8.49;100.00
14232;BME280;7200;52.194;9.900;2023-02-15T12:44:59;101184.47;;;8.30;100.00
14232;BME280;7200;52.194;9.900;2023-02-15T12:47:25;101178.34;;;8.30;100.00
14232;BME280;7200;52.194;9.900;2023-02-15T12:50:14;101184.50;;;8.29;100.00
14232;BME280;7200;52.194;9.900;2023-02-15T12:52:48;101177.41;;;8.34;100.00
14232;BME280;7200;52.194;9.900;2023-02-15T12:55:20;101196.41;;;8.53;100.00
14232;BME280;7200;52.194;9.900;2023-02-15T12:57:46;101179.53;;;8.68;100.00
14232;BME280;7200;52.194;9.900;2023-02-15T13:02:47;101139.84;;;8.26;100.00
14232;BME280;7200;52.194;9.900;2023-02-15T13:05:30;101192.56;;;8.75;100.00
14232;BME280;7200;52.194;9.900;2023-02-15T13:08:09;101183.41;;;8.96;100.00
14232;BME280;7200;52.194;9.900;2023-02-15T13:11:03;101157.72;;;9.11;100.00
14232;BME280;7200;52.194;9.900;2023-02-15T13:13:33;101099.09;;;9.04;100.00
14232;BME280;7200;52.194;9.900;2023-02-15T13:16:03;101092.91;;;9.05;100.00
14232;BME280;7200;52.194;9.900;2023-02-15T13:18:32;101077.59;;;8.81;100.00
14232;BME280;7200;52.194;9.900;2023-02-15T13:21:14;101051.22;;;8.84;100.00
14232;BME280;7200;52.194;9.900;2023-02-15T13:26:52;101082.88;;;9.24;100.00
14232;BME280;7200;52.194;9.900;2023-02-15T13:29:25;101087.78;;;9.41;100.00
14232;BME280;7200;52.194;9.900;2023-02-15T13:31:53;101065.69;;;9.48;100.00
14232;BME280;7200;52.194;9.900;2023-02-15T13:42:59;101075.59;;;9.78;100.00
14232;BME280;7200;52.194;9.900;2023-02-15T13:51:14;100980.22;;;9.62;100.00
14232;BME280;7200;52.194;9.900;2023-02-15T14:12:16;100969.91;;;9.51;100.00
14232;BME280;7200;52.194;9.900;2023-02-15T14:15:10;100980.34;;;9.57;100.00
14232;BME280;7200;52.194;9.900;2023-02-15T14:18:18;100957.25;;;9.29;100.00
14232;BME280;7200;52.194;9.900;2023-02-15T14:27:10;100967.38;;;9.07;100.00
14232;BME280;7200;52.194;9.900;2023-02-15T14:32:30;100985.44;;;8.84;100.00
14232;BME280;7200;52.194;9.900;2023-02-15T14:35:00;101030.78;;;8.96;100.00
14232;BME280;7200;52.194;9.900;2023-02-15T14:40:32;100972.44;;;8.76;100.00
14232;BME280;7200;52.194;9.900;2023-02-15T14:45:53;100985.38;;;8.85;100.00
14232;BME280;7200;52.194;9.900;2023-02-15T14:48:29;101037.31;;;9.21;100.00
14232;BME280;7200;52.194;9.900;2023-02-15T14:50:55;100975.50;;;8.96;100.00
14232;BME280;7200;52.194;9.900;2023-02-15T14:58:37;101014.63;;;9.13;100.00
14232;BME280;7200;52.194;9.900;2023-02-15T15:01:09;100983.56;;;8.89;100.00
14232;BME280;7200;52.194;9.900;2023-02-15T15:03:36;100987.13;;;8.86;100.00
14232;BME280;7200;52.194;9.900;2023-02-15T15:06:07;101007.19;;;8.92;100.00
14232;BME280;7200;52.194;9.900;2023-02-15T15:08:45;101003.59;;;8.96;100.00
14232;BME280;7200;52.194;9.900;2023-02-15T15:13:56;100977.44;;;8.88;100.00
14232;BME280;7200;52.194;9.900;2023-02-15T15:19:00;100978.63;;;8.73;100.00
14232;BME280;7200;52.194;9.900;2023-02-15T15:30:01;100994.22;;;8.83;100.00
14232;BME280;7200;52.194;9.900;2023-02-15T15:32:30;100993.38;;;8.81;100.00
14232;BME280;7200;52.194;9.900;2023-02-15T15:38:49;100998.59;;;8.84;100.00
14232;BME280;7200;52.194;9.900;2023-02-15T15:41:44;100990.78;;;8.79;100.00